createdAt,value
2022-12-26T00:00:02.200Z,9.34
2022-12-26T00:01:02.208Z,9.37
2022-12-26T00:02:02.172Z,9.40
2022-12-26T00:03:02.312Z,9.40
2022-12-26T00:04:02.239Z,9.31
2022-12-26T00:05:02.276Z,9.34
2022-12-26T00:06:02.142Z,9.39
2022-12-26T00:07:02.136Z,9.34
2022-12-26T00:08:02.120Z,9.36
2022-12-26T00:09:02.118Z,9.41
2022-12-26T00:10:02.105Z,9.37
2022-12-26T00:11:02.100Z,9.41
2022-12-26T00:12:02.094Z,9.40
2022-12-26T00:13:39.621Z,9.40
2022-12-26T00:14:02.065Z,9.51
2022-12-26T00:15:02.059Z,9.28
2022-12-26T00:16:02.112Z,9.43
2022-12-26T00:17:02.062Z,9.44
2022-12-26T00:18:02.044Z,9.41
2022-12-26T00:19:02.022Z,9.43
2022-12-26T00:20:02.074Z,9.43
2022-12-26T00:21:02.011Z,9.44
2022-12-26T00:22:01.995Z,9.43
2022-12-26T00:23:01.987Z,9.36
2022-12-26T00:24:01.980Z,9.46
2022-12-26T00:25:01.979Z,9.44
2022-12-26T00:26:01.976Z,9.46
2022-12-26T00:27:01.951Z,9.44
2022-12-26T00:28:01.981Z,9.44
2022-12-26T00:29:01.940Z,9.39
2022-12-26T00:30:01.929Z,9.50
2022-12-26T00:31:01.997Z,9.36
2022-12-26T00:32:01.940Z,9.40
2022-12-26T00:33:01.912Z,9.41
2022-12-26T00:34:01.905Z,9.46
2022-12-26T00:35:01.884Z,9.47
2022-12-26T00:36:02.235Z,9.51
2022-12-26T00:37:01.878Z,9.46
2022-12-26T00:38:01.908Z,9.47
2022-12-26T00:39:01.884Z,9.40
2022-12-26T00:40:01.847Z,9.46
2022-12-26T00:41:01.872Z,9.54
2022-12-26T00:42:01.828Z,9.47
2022-12-26T00:43:01.815Z,9.46
2022-12-26T00:44:01.833Z,9.47
2022-12-26T00:45:01.799Z,9.58
2022-12-26T00:46:01.787Z,9.56
2022-12-26T00:47:01.865Z,9.46
2022-12-26T00:48:01.779Z,9.55
2022-12-26T00:49:01.762Z,9.51
2022-12-26T00:50:11.310Z,9.58
2022-12-26T00:51:01.757Z,9.61
2022-12-26T00:52:01.756Z,9.54
2022-12-26T00:53:01.749Z,9.56
2022-12-26T00:54:01.722Z,9.59
2022-12-26T00:55:01.707Z,9.55
2022-12-26T00:56:01.706Z,9.64
2022-12-26T00:57:01.695Z,9.59
2022-12-26T00:58:01.682Z,9.64
2022-12-26T00:59:01.674Z,9.59
2022-12-26T01:00:01.672Z,9.58
2022-12-26T01:01:01.686Z,9.59
2022-12-26T01:02:01.840Z,9.66
2022-12-26T01:03:01.716Z,9.68
2022-12-26T01:04:01.634Z,9.66
2022-12-26T01:05:01.622Z,9.64
2022-12-26T01:06:01.612Z,9.62
2022-12-26T01:07:01.608Z,9.74
2022-12-26T01:08:22.304Z,9.66
2022-12-26T01:09:01.587Z,9.69
2022-12-26T01:10:01.593Z,9.64
2022-12-26T01:11:01.569Z,9.74
2022-12-26T01:12:01.561Z,9.66
2022-12-26T01:13:01.556Z,9.72
2022-12-26T01:14:01.553Z,9.66
2022-12-26T01:15:01.534Z,9.62
2022-12-26T01:16:01.613Z,9.66
2022-12-26T01:17:01.602Z,9.77
2022-12-26T01:18:01.518Z,9.72
2022-12-26T01:19:01.523Z,9.74
2022-12-26T01:20:01.499Z,9.68
2022-12-26T01:21:01.484Z,9.74
2022-12-26T01:22:01.511Z,9.72
2022-12-26T01:23:01.477Z,9.69
2022-12-26T01:24:01.453Z,9.79
2022-12-26T01:25:01.444Z,9.77
2022-12-26T01:26:19.170Z,9.72
2022-12-26T01:27:01.431Z,9.77
2022-12-26T01:28:01.494Z,9.83
2022-12-26T01:29:01.414Z,9.79
2022-12-26T01:30:01.418Z,9.77
2022-12-26T01:31:01.397Z,9.76
2022-12-26T01:32:01.428Z,9.91
2022-12-26T01:33:01.377Z,9.77
2022-12-26T01:34:01.384Z,9.82
2022-12-26T01:35:01.365Z,9.84
2022-12-26T01:36:01.488Z,9.80
2022-12-26T01:37:01.351Z,9.84
2022-12-26T01:38:01.335Z,9.74
2022-12-26T01:39:01.330Z,9.80
2022-12-26T01:40:01.353Z,9.87
2022-12-26T01:41:01.313Z,9.80
2022-12-26T01:42:01.334Z,9.82
2022-12-26T01:43:01.293Z,9.87
2022-12-26T01:44:01.280Z,9.87
2022-12-26T01:45:01.290Z,9.84
2022-12-26T01:46:01.343Z,9.82
2022-12-26T01:47:01.321Z,9.76
2022-12-26T01:48:01.257Z,9.82
2022-12-26T01:49:01.239Z,9.76
2022-12-26T01:50:01.259Z,9.80
2022-12-26T01:51:01.238Z,9.86
2022-12-26T01:52:01.230Z,9.84
2022-12-26T01:53:01.253Z,9.95
2022-12-26T01:54:37.352Z,9.82
2022-12-26T01:55:01.186Z,9.87
2022-12-26T01:56:01.197Z,9.92
2022-12-26T01:57:01.191Z,9.89
2022-12-26T01:58:01.167Z,9.79
2022-12-26T01:59:01.167Z,9.84
2022-12-26T02:00:01.147Z,9.74
2022-12-26T02:01:01.232Z,9.76
2022-12-26T02:02:01.330Z,9.84
2022-12-26T02:03:01.138Z,9.83
2022-12-26T02:04:01.120Z,9.72
2022-12-26T02:05:01.099Z,9.73
2022-12-26T02:06:01.104Z,9.74
2022-12-26T02:07:01.086Z,9.76
2022-12-26T02:08:01.076Z,9.86
2022-12-26T02:09:01.069Z,9.74
2022-12-26T02:10:01.059Z,9.77
2022-12-26T02:11:01.062Z,9.77
2022-12-26T02:12:36.266Z,9.76
2022-12-26T02:13:01.064Z,9.74
2022-12-26T02:14:01.030Z,9.82
2022-12-26T02:15:01.072Z,9.83
2022-12-26T02:16:01.011Z,9.83
2022-12-26T02:17:01.109Z,9.80
2022-12-26T02:18:01.014Z,9.91
2022-12-26T02:19:00.979Z,9.84
2022-12-26T02:20:00.988Z,9.79
2022-12-26T02:21:00.972Z,9.86
2022-12-26T02:22:00.956Z,9.89
2022-12-26T02:23:00.953Z,9.87
2022-12-26T02:24:00.941Z,9.84
2022-12-26T02:25:00.928Z,9.89
2022-12-26T02:26:00.925Z,9.89
2022-12-26T02:27:00.915Z,9.92
2022-12-26T02:28:00.907Z,9.92
2022-12-26T02:29:00.895Z,9.94
2022-12-26T02:30:00.890Z,9.94
2022-12-26T02:31:00.878Z,9.94
2022-12-26T02:32:00.978Z,9.83
2022-12-26T02:33:00.862Z,9.94
2022-12-26T02:34:00.859Z,9.86
2022-12-26T02:35:00.865Z,9.95
2022-12-26T02:36:00.865Z,9.92
2022-12-26T02:37:00.855Z,9.95
2022-12-26T02:38:00.815Z,9.95
2022-12-26T02:39:00.816Z,9.94
2022-12-26T02:40:00.802Z,10.01
2022-12-26T02:41:00.795Z,9.92
2022-12-26T02:42:00.797Z,9.94
2022-12-26T02:43:00.771Z,10.01
2022-12-26T02:44:00.769Z,9.95
2022-12-26T02:45:00.806Z,9.95
2022-12-26T02:46:00.793Z,9.97
2022-12-26T02:47:00.745Z,10.02
2022-12-26T02:48:00.732Z,9.95
2022-12-26T02:49:00.725Z,9.95
2022-12-26T02:50:00.724Z,9.92
2022-12-26T02:51:00.720Z,10.02
2022-12-26T02:52:00.704Z,10.05
2022-12-26T02:53:00.857Z,10.07
2022-12-26T02:54:00.680Z,10.01
2022-12-26T02:55:00.677Z,10.05
2022-12-26T02:56:00.671Z,10.02
2022-12-26T02:57:00.671Z,10.05
2022-12-26T02:58:00.648Z,10.01
2022-12-26T02:59:00.637Z,10.15
2022-12-26T03:00:00.628Z,10.07
2022-12-26T03:01:00.689Z,10.09
2022-12-26T03:02:00.728Z,10.16
2022-12-26T03:03:00.643Z,10.07
2022-12-26T03:04:00.597Z,10.09
2022-12-26T03:05:00.587Z,10.12
2022-12-26T03:06:00.580Z,10.13
2022-12-26T03:07:00.569Z,10.17
2022-12-26T03:08:00.557Z,10.12
2022-12-26T03:09:00.569Z,10.09
2022-12-26T03:10:00.547Z,10.07
2022-12-26T03:11:00.540Z,10.13
2022-12-26T03:12:00.560Z,10.15
2022-12-26T03:13:00.521Z,10.13
2022-12-26T03:14:00.522Z,10.12
2022-12-26T03:15:00.513Z,10.17
2022-12-26T03:16:00.498Z,10.25
2022-12-26T03:17:00.545Z,10.26
2022-12-26T03:18:00.505Z,10.20
2022-12-26T03:19:00.987Z,10.30
2022-12-26T03:20:00.524Z,10.25
2022-12-26T03:21:00.451Z,10.26
2022-12-26T03:22:00.452Z,10.17
2022-12-26T03:23:00.449Z,10.28
2022-12-26T03:24:00.445Z,10.26
2022-12-26T03:25:00.431Z,10.28
2022-12-26T03:26:00.414Z,10.28
2022-12-26T03:27:00.477Z,10.30
2022-12-26T03:28:00.391Z,10.25
2022-12-26T03:29:00.379Z,10.30
2022-12-26T03:30:00.379Z,10.38
2022-12-26T03:31:00.409Z,10.23
2022-12-26T03:32:00.365Z,10.33
2022-12-26T03:33:00.361Z,10.31
2022-12-26T03:34:00.344Z,10.25
2022-12-26T03:35:00.344Z,10.35
2022-12-26T03:36:00.336Z,10.33
2022-12-26T03:37:00.317Z,10.37
2022-12-26T03:38:00.307Z,10.35
2022-12-26T03:39:00.300Z,10.33
2022-12-26T03:40:00.288Z,10.37
2022-12-26T03:41:00.283Z,10.33
2022-12-26T03:42:00.286Z,10.34
2022-12-26T03:43:00.268Z,10.31
2022-12-26T03:44:00.259Z,10.42
2022-12-26T03:45:00.246Z,10.35
2022-12-26T03:46:00.325Z,10.35
2022-12-26T03:47:00.232Z,10.41
2022-12-26T03:48:00.222Z,10.38
2022-12-26T03:49:00.216Z,10.48
2022-12-26T03:50:00.216Z,10.40
2022-12-26T03:51:00.200Z,10.49
2022-12-26T03:52:00.252Z,10.35
2022-12-26T03:53:00.185Z,10.44
2022-12-26T03:54:00.177Z,10.49
2022-12-26T03:55:00.165Z,10.46
2022-12-26T03:56:00.160Z,10.38
2022-12-26T03:57:00.168Z,10.49
2022-12-26T03:58:00.138Z,10.35
2022-12-26T03:59:00.175Z,10.48
2022-12-26T04:00:00.266Z,10.42
2022-12-26T04:01:00.229Z,10.44
2022-12-26T04:02:00.344Z,10.49
2022-12-26T04:03:00.117Z,10.40
2022-12-26T04:04:00.226Z,10.41
2022-12-26T04:05:00.109Z,10.42
2022-12-26T04:06:00.130Z,10.51
2022-12-26T04:07:00.132Z,10.53
2022-12-26T04:08:00.118Z,10.46
2022-12-26T04:09:00.157Z,10.46
2022-12-26T04:10:00.107Z,10.49
2022-12-26T04:11:00.074Z,10.41
2022-12-26T04:12:00.061Z,10.41
2022-12-26T04:13:00.017Z,10.46
2022-12-26T04:14:00.010Z,10.46
2022-12-26T04:15:00.001Z,10.44
2022-12-26T04:16:00.038Z,10.51
2022-12-26T04:16:59.989Z,10.42
2022-12-26T04:17:59.984Z,10.48
2022-12-26T04:18:59.973Z,10.49
2022-12-26T04:19:59.967Z,10.59
2022-12-26T04:20:59.953Z,10.59
2022-12-26T04:21:59.950Z,10.54
2022-12-26T04:22:59.936Z,10.59
2022-12-26T04:23:59.928Z,10.54
2022-12-26T04:24:59.916Z,10.57
2022-12-26T04:25:59.916Z,10.60
2022-12-26T04:26:59.903Z,10.53
2022-12-26T04:27:59.890Z,10.56
2022-12-26T04:28:59.893Z,10.57
2022-12-26T04:29:59.897Z,10.60
2022-12-26T04:30:59.928Z,10.59
2022-12-26T04:31:59.865Z,10.57
2022-12-26T04:32:59.853Z,10.61
2022-12-26T04:33:59.849Z,10.57
2022-12-26T04:34:59.833Z,10.60
2022-12-26T04:35:59.837Z,10.56
2022-12-26T04:36:59.818Z,10.56
2022-12-26T04:37:59.810Z,10.59
2022-12-26T04:38:59.811Z,10.59
2022-12-26T04:39:59.793Z,10.60
2022-12-26T04:40:59.784Z,10.54
2022-12-26T04:41:59.774Z,10.59
2022-12-26T04:42:59.765Z,10.59
2022-12-26T04:43:59.774Z,10.54
2022-12-26T04:44:59.754Z,10.59
2022-12-26T04:45:59.783Z,10.54
2022-12-26T04:47:00.659Z,10.64
2022-12-26T04:47:59.724Z,10.54
2022-12-26T04:48:59.719Z,10.60
2022-12-26T04:49:59.710Z,10.56
2022-12-26T04:50:59.701Z,10.57
2022-12-26T04:51:59.811Z,10.69
2022-12-26T04:52:59.882Z,10.63
2022-12-26T04:53:59.858Z,10.59
2022-12-26T04:54:59.675Z,10.57
2022-12-26T04:55:59.659Z,10.71
2022-12-26T04:56:59.657Z,10.64
2022-12-26T04:57:59.649Z,10.63
2022-12-26T04:58:59.646Z,10.61
2022-12-26T04:59:59.627Z,10.69
2022-12-26T05:00:59.620Z,10.64
2022-12-26T05:01:59.657Z,10.59
2022-12-26T05:02:59.800Z,10.59
2022-12-26T05:03:59.667Z,10.61
2022-12-26T05:04:59.588Z,10.68
2022-12-26T05:05:59.764Z,10.61
2022-12-26T05:06:59.680Z,10.57
2022-12-26T05:08:00.532Z,10.54
2022-12-26T05:09:00.161Z,10.56
2022-12-26T05:09:59.547Z,10.56
2022-12-26T05:10:59.542Z,10.59
2022-12-26T05:11:59.544Z,10.53
2022-12-26T05:12:59.531Z,10.49
2022-12-26T05:13:59.513Z,10.59
2022-12-26T05:14:59.507Z,10.60
2022-12-26T05:15:59.529Z,10.60
2022-12-26T05:16:59.494Z,10.54
2022-12-26T05:17:59.487Z,10.57
2022-12-26T05:18:59.476Z,10.59
2022-12-26T05:19:59.464Z,10.56
2022-12-26T05:20:59.604Z,10.59
2022-12-26T05:21:59.704Z,10.51
2022-12-26T05:22:59.792Z,10.56
2022-12-26T05:23:59.487Z,10.61
2022-12-26T05:24:59.425Z,10.59
2022-12-26T05:25:59.604Z,10.54
2022-12-26T05:26:59.412Z,10.51
2022-12-26T05:27:59.398Z,10.59
2022-12-26T05:28:59.398Z,10.59
2022-12-26T05:29:59.385Z,10.59
2022-12-26T05:30:59.400Z,10.59
2022-12-26T05:31:59.434Z,10.59
2022-12-26T05:32:59.365Z,10.56
2022-12-26T05:33:59.361Z,10.60
2022-12-26T05:34:59.343Z,10.53
2022-12-26T05:35:59.336Z,10.57
2022-12-26T05:36:59.327Z,10.60
2022-12-26T05:37:59.329Z,10.54
2022-12-26T05:38:59.321Z,10.56
2022-12-26T05:39:59.302Z,10.44
2022-12-26T05:40:59.297Z,10.46
2022-12-26T05:41:59.310Z,10.59
2022-12-26T05:42:59.279Z,10.54
2022-12-26T05:43:59.309Z,10.51
2022-12-26T05:44:59.264Z,10.54
2022-12-26T05:45:59.270Z,10.56
2022-12-26T05:46:59.323Z,10.48
2022-12-26T05:47:59.247Z,10.54
2022-12-26T05:48:59.229Z,10.57
2022-12-26T05:49:59.225Z,10.59
2022-12-26T05:50:59.222Z,10.59
2022-12-26T05:51:59.208Z,10.57
2022-12-26T05:52:59.204Z,10.56
2022-12-26T05:53:59.193Z,10.56
2022-12-26T05:54:59.181Z,10.49
2022-12-26T05:55:59.174Z,10.44
2022-12-26T05:56:59.174Z,10.44
2022-12-26T05:57:59.161Z,10.42
2022-12-26T05:58:59.195Z,10.53
2022-12-26T05:59:59.145Z,10.44
2022-12-26T06:00:59.139Z,10.37
2022-12-26T06:01:59.278Z,10.51
2022-12-26T06:02:59.309Z,10.41
2022-12-26T06:03:59.256Z,10.35
2022-12-26T06:04:59.103Z,10.40
2022-12-26T06:05:59.098Z,10.44
2022-12-26T06:06:59.085Z,10.44
2022-12-26T06:07:59.077Z,10.44
2022-12-26T06:08:59.092Z,10.46
2022-12-26T06:09:59.063Z,10.44
2022-12-26T06:10:59.049Z,10.35
2022-12-26T06:11:59.040Z,10.40
2022-12-26T06:12:59.044Z,10.51
2022-12-26T06:13:59.038Z,10.46
2022-12-26T06:14:59.013Z,10.38
2022-12-26T06:15:59.049Z,10.41
2022-12-26T06:16:59.005Z,10.46
2022-12-26T06:17:59.002Z,10.42
2022-12-26T06:18:58.997Z,10.42
2022-12-26T06:19:58.981Z,10.48
2022-12-26T06:20:58.969Z,10.40
2022-12-26T06:21:58.963Z,10.41
2022-12-26T06:22:58.971Z,10.42
2022-12-26T06:23:58.950Z,10.44
2022-12-26T06:24:58.960Z,10.44
2022-12-26T06:25:58.931Z,10.49
2022-12-26T06:26:58.918Z,10.49
2022-12-26T06:27:58.919Z,10.44
2022-12-26T06:28:58.906Z,10.42
2022-12-26T06:29:58.901Z,10.44
2022-12-26T06:30:58.930Z,10.51
2022-12-26T06:31:58.964Z,10.44
2022-12-26T06:32:58.869Z,10.49
2022-12-26T06:33:58.890Z,10.44
2022-12-26T06:34:58.851Z,10.44
2022-12-26T06:35:58.849Z,10.48
2022-12-26T06:36:58.862Z,10.40
2022-12-26T06:37:58.830Z,10.46
2022-12-26T06:38:58.821Z,10.46
2022-12-26T06:39:58.812Z,10.46
2022-12-26T06:40:58.807Z,10.46
2022-12-26T06:41:58.846Z,10.49
2022-12-26T06:42:58.790Z,10.46
2022-12-26T06:43:58.781Z,10.49
2022-12-26T06:44:58.776Z,10.37
2022-12-26T06:45:58.766Z,10.33
2022-12-26T06:46:58.843Z,10.49
2022-12-26T06:47:58.797Z,10.41
2022-12-26T06:48:58.738Z,10.44
2022-12-26T06:49:58.735Z,10.41
2022-12-26T06:50:58.726Z,10.38
2022-12-26T06:51:58.718Z,10.42
2022-12-26T06:52:58.716Z,10.42
2022-12-26T06:53:58.699Z,10.41
2022-12-26T06:54:58.699Z,10.49
2022-12-26T06:55:58.686Z,10.44
2022-12-26T06:56:58.680Z,10.38
2022-12-26T06:57:58.668Z,10.37
2022-12-26T06:58:58.664Z,10.46
2022-12-26T06:59:58.651Z,10.49
2022-12-26T07:00:58.710Z,10.49
2022-12-26T07:01:58.711Z,10.42
2022-12-26T07:02:58.691Z,10.48
2022-12-26T07:03:58.626Z,10.42
2022-12-26T07:04:58.652Z,10.44
2022-12-26T07:05:58.604Z,10.49
2022-12-26T07:06:58.595Z,10.42
2022-12-26T07:07:58.590Z,10.44
2022-12-26T07:08:58.580Z,10.41
2022-12-26T07:09:58.572Z,10.44
2022-12-26T07:10:58.566Z,10.49
2022-12-26T07:11:58.567Z,10.41
2022-12-26T07:12:58.542Z,10.48
2022-12-26T07:13:58.536Z,10.44
2022-12-26T07:15:01.555Z,10.44
2022-12-26T07:15:58.576Z,10.48
2022-12-26T07:16:58.518Z,10.42
2022-12-26T07:17:58.512Z,10.44
2022-12-26T07:18:58.493Z,10.48
2022-12-26T07:19:58.497Z,10.46
2022-12-26T07:20:58.563Z,10.44
2022-12-26T07:21:58.680Z,10.44
2022-12-26T07:22:58.484Z,10.41
2022-12-26T07:23:58.476Z,10.48
2022-12-26T07:24:58.456Z,10.44
2022-12-26T07:25:58.444Z,10.48
2022-12-26T07:26:58.492Z,10.42
2022-12-26T07:27:58.618Z,10.49
2022-12-26T07:28:58.421Z,10.46
2022-12-26T07:29:58.595Z,10.42
2022-12-26T07:30:58.400Z,10.46
2022-12-26T07:31:58.414Z,10.42
2022-12-26T07:32:58.384Z,10.31
2022-12-26T07:33:58.388Z,10.41
2022-12-26T07:34:58.365Z,10.33
2022-12-26T07:35:58.359Z,10.46
2022-12-26T07:36:58.363Z,10.34
2022-12-26T07:37:58.345Z,10.35
2022-12-26T07:38:58.344Z,10.40
2022-12-26T07:39:59.344Z,10.35
2022-12-26T07:40:58.328Z,10.48
2022-12-26T07:41:58.330Z,10.48
2022-12-26T07:42:58.310Z,10.46
2022-12-26T07:43:58.304Z,10.44
2022-12-26T07:44:58.295Z,10.49
2022-12-26T07:45:58.338Z,10.38
2022-12-26T07:46:58.302Z,10.40
2022-12-26T07:47:58.260Z,10.46
2022-12-26T07:48:58.255Z,10.41
2022-12-26T07:49:58.251Z,10.44
2022-12-26T07:50:58.239Z,10.44
2022-12-26T07:51:58.232Z,10.46
2022-12-26T07:52:58.219Z,10.53
2022-12-26T07:53:58.245Z,10.44
2022-12-26T07:54:58.207Z,10.44
2022-12-26T07:55:58.195Z,10.46
2022-12-26T07:57:21.734Z,10.42
2022-12-26T07:57:58.217Z,10.44
2022-12-26T07:58:58.171Z,10.46
2022-12-26T07:59:58.166Z,10.42
2022-12-26T08:00:58.203Z,10.56
2022-12-26T08:01:58.388Z,10.54
2022-12-26T08:03:04.746Z,10.60
2022-12-26T08:03:58.311Z,10.61
2022-12-26T08:04:58.125Z,10.57
2022-12-26T08:05:58.112Z,10.54
2022-12-26T08:06:58.108Z,10.63
2022-12-26T08:07:58.100Z,10.60
2022-12-26T08:08:58.341Z,10.60
2022-12-26T08:09:58.089Z,10.59
2022-12-26T08:10:58.271Z,10.59
2022-12-26T08:11:58.067Z,10.59
2022-12-26T08:12:58.060Z,10.60
2022-12-26T08:13:58.053Z,10.64
2022-12-26T08:14:58.094Z,10.63
2022-12-26T08:15:58.083Z,10.61
2022-12-26T08:16:58.093Z,10.63
2022-12-26T08:17:58.029Z,10.64
2022-12-26T08:18:58.012Z,10.63
2022-12-26T08:19:58.003Z,10.57
2022-12-26T08:20:57.997Z,10.57
2022-12-26T08:21:57.993Z,10.59
2022-12-26T08:23:57.976Z,10.56
2022-12-26T08:24:57.965Z,10.59
2022-12-26T08:25:57.960Z,10.56
2022-12-26T08:26:57.947Z,10.67
2022-12-26T08:27:57.950Z,10.68
2022-12-26T08:28:57.954Z,10.59
2022-12-26T08:29:57.925Z,10.57
2022-12-26T08:30:57.921Z,10.59
2022-12-26T08:31:57.909Z,10.63
2022-12-26T08:32:57.899Z,10.56
2022-12-26T08:33:57.900Z,10.60
2022-12-26T08:34:57.906Z,10.60
2022-12-26T08:35:57.871Z,10.57
2022-12-26T08:36:57.870Z,10.60
2022-12-26T08:37:57.862Z,10.53
2022-12-26T08:38:57.853Z,10.54
2022-12-26T08:39:57.845Z,10.63
2022-12-26T08:40:57.844Z,10.63
2022-12-26T08:41:57.838Z,10.59
2022-12-26T08:43:21.588Z,10.53
2022-12-26T08:44:57.813Z,10.63
2022-12-26T08:45:57.818Z,10.64
2022-12-26T08:46:57.789Z,10.69
2022-12-26T08:47:57.784Z,10.67
2022-12-26T08:48:57.784Z,10.75
2022-12-26T08:49:57.768Z,10.63
2022-12-26T08:50:57.761Z,10.68
2022-12-26T08:51:57.751Z,10.68
2022-12-26T08:52:57.751Z,10.69
2022-12-26T08:53:57.734Z,10.72
2022-12-26T08:54:57.730Z,10.72
2022-12-26T08:55:57.741Z,10.74
2022-12-26T08:56:57.715Z,10.81
2022-12-26T08:57:57.743Z,10.79
2022-12-26T08:58:57.696Z,10.69
2022-12-26T08:59:57.687Z,10.76
2022-12-26T09:00:57.738Z,10.79
2022-12-26T09:01:57.750Z,10.76
2022-12-26T09:02:57.692Z,10.72
2022-12-26T09:03:57.659Z,10.72
2022-12-26T09:04:57.652Z,10.71
2022-12-26T09:05:58.796Z,10.76
2022-12-26T09:06:57.636Z,10.78
2022-12-26T09:07:57.630Z,10.76
2022-12-26T09:08:57.636Z,10.72
2022-12-26T09:09:57.612Z,10.75
2022-12-26T09:10:57.604Z,10.76
2022-12-26T09:11:57.597Z,10.78
2022-12-26T09:12:57.591Z,10.79
2022-12-26T09:13:57.602Z,10.84
2022-12-26T09:14:57.573Z,10.76
2022-12-26T09:15:57.564Z,10.76
2022-12-26T09:16:57.595Z,10.84
2022-12-26T09:17:57.551Z,10.76
2022-12-26T09:18:57.542Z,10.89
2022-12-26T09:19:57.538Z,10.84
2022-12-26T09:20:57.527Z,10.89
2022-12-26T09:21:57.521Z,10.82
2022-12-26T09:22:57.512Z,10.84
2022-12-26T09:23:57.503Z,10.82
2022-12-26T09:24:57.497Z,10.89
2022-12-26T09:25:57.488Z,10.86
2022-12-26T09:26:57.481Z,10.92
2022-12-26T09:27:59.528Z,10.92
2022-12-26T09:28:57.465Z,10.90
2022-12-26T09:29:57.465Z,10.90
2022-12-26T09:30:57.494Z,10.81
2022-12-26T09:31:57.445Z,10.90
2022-12-26T09:32:57.434Z,10.86
2022-12-26T09:33:57.426Z,10.90
2022-12-26T09:34:57.516Z,10.89
2022-12-26T09:36:03.401Z,10.92
2022-12-26T09:36:57.411Z,10.90
2022-12-26T09:37:57.519Z,10.89
2022-12-26T09:38:57.405Z,10.89
2022-12-26T09:39:57.387Z,10.92
2022-12-26T09:40:57.372Z,10.96
2022-12-26T09:41:57.371Z,10.89
2022-12-26T09:42:57.364Z,10.97
2022-12-26T09:43:57.351Z,10.93
2022-12-26T09:44:57.348Z,10.94
2022-12-26T09:45:57.408Z,10.84
2022-12-26T09:46:57.341Z,10.94
2022-12-26T09:47:57.320Z,10.92
2022-12-26T09:48:57.342Z,10.97
2022-12-26T09:49:57.306Z,11.07
2022-12-26T09:50:57.302Z,10.99
2022-12-26T09:51:57.286Z,10.92
2022-12-26T09:52:57.280Z,11.05
2022-12-26T09:53:57.271Z,11.02
2022-12-26T09:54:57.300Z,11.07
2022-12-26T09:55:57.269Z,11.04
2022-12-26T09:57:07.383Z,11.12
2022-12-26T09:57:57.241Z,11.15
2022-12-26T09:58:57.235Z,11.14
2022-12-26T09:59:57.230Z,11.22
2022-12-26T10:00:57.218Z,11.12
2022-12-26T10:01:57.285Z,11.15
2022-12-26T10:02:57.213Z,11.15
2022-12-26T10:03:57.270Z,11.12
2022-12-26T10:04:57.227Z,11.23
2022-12-26T10:05:57.195Z,11.18
2022-12-26T10:06:57.172Z,11.18
2022-12-26T10:07:57.206Z,11.18
2022-12-26T10:08:57.176Z,11.14
2022-12-26T10:09:57.145Z,11.15
2022-12-26T10:10:57.141Z,11.19
2022-12-26T10:11:57.134Z,11.15
2022-12-26T10:12:57.140Z,11.25
2022-12-26T10:13:57.117Z,11.15
2022-12-26T10:14:57.108Z,11.11
2022-12-26T10:15:57.136Z,11.22
2022-12-26T10:16:57.101Z,11.18
2022-12-26T10:17:57.093Z,11.25
2022-12-26T10:18:57.083Z,11.29
2022-12-26T10:19:57.073Z,11.30
2022-12-26T10:20:57.065Z,11.32
2022-12-26T10:21:57.064Z,11.26
2022-12-26T10:22:57.059Z,11.19
2022-12-26T10:23:57.042Z,11.19
2022-12-26T10:24:57.035Z,11.12
2022-12-26T10:25:57.043Z,11.12
2022-12-26T10:26:57.019Z,11.25
2022-12-26T10:27:57.106Z,11.12
2022-12-26T10:28:57.009Z,11.23
2022-12-26T10:29:56.995Z,11.11
2022-12-26T10:30:56.995Z,11.15
2022-12-26T10:31:56.980Z,11.18
2022-12-26T10:32:56.975Z,11.19
2022-12-26T10:33:56.971Z,11.10
2022-12-26T10:34:56.958Z,11.14
2022-12-26T10:35:56.949Z,11.11
2022-12-26T10:36:56.943Z,11.14
2022-12-26T10:37:56.939Z,11.14
2022-12-26T10:38:56.927Z,11.12
2022-12-26T10:39:56.918Z,11.08
2022-12-26T10:40:56.914Z,11.08
2022-12-26T10:41:56.903Z,11.07
2022-12-26T10:42:56.893Z,10.99
2022-12-26T10:43:56.890Z,10.93
2022-12-26T10:44:56.883Z,11.00
2022-12-26T10:45:56.912Z,10.90
2022-12-26T10:46:56.868Z,10.99
2022-12-26T10:47:56.857Z,11.00
2022-12-26T10:48:56.850Z,10.99
2022-12-26T10:49:56.844Z,10.93
2022-12-26T10:50:56.850Z,10.99
2022-12-26T10:51:56.830Z,10.97
2022-12-26T10:52:56.819Z,10.92
2022-12-26T10:53:56.813Z,10.97
2022-12-26T10:55:27.222Z,10.92
2022-12-26T10:55:56.795Z,10.90
2022-12-26T10:56:56.788Z,10.97
2022-12-26T10:57:56.805Z,10.92
2022-12-26T10:58:56.772Z,10.92
2022-12-26T10:59:56.853Z,10.90
2022-12-26T11:00:56.770Z,10.87
2022-12-26T11:01:59.791Z,10.87
2022-12-26T11:02:56.829Z,10.82
2022-12-26T11:03:56.741Z,10.81
2022-12-26T11:05:13.556Z,10.86
2022-12-26T11:06:12.099Z,10.90
2022-12-26T11:06:56.713Z,10.75
2022-12-26T11:07:56.702Z,10.86
2022-12-26T11:08:56.694Z,10.84
2022-12-26T11:09:56.690Z,10.79
2022-12-26T11:10:56.682Z,10.82
2022-12-26T11:11:56.674Z,10.81
2022-12-26T11:12:56.672Z,10.74
2022-12-26T11:14:01.634Z,10.75
2022-12-26T11:14:56.647Z,10.78
2022-12-26T11:15:56.674Z,10.76
2022-12-26T11:16:56.632Z,10.75
2022-12-26T11:17:56.626Z,10.75
2022-12-26T11:18:56.626Z,10.71
2022-12-26T11:19:56.849Z,10.59
2022-12-26T11:20:56.670Z,10.69
2022-12-26T11:21:56.595Z,10.72
2022-12-26T11:22:56.629Z,10.59
2022-12-26T11:23:56.604Z,10.60
2022-12-26T11:24:56.645Z,10.59
2022-12-26T11:25:56.568Z,10.59
2022-12-26T11:26:56.557Z,10.61
2022-12-26T11:27:56.546Z,10.59
2022-12-26T11:28:56.539Z,10.61
2022-12-26T11:29:56.525Z,10.57
2022-12-26T11:30:56.582Z,10.57
2022-12-26T11:31:56.516Z,10.57
2022-12-26T11:32:56.511Z,10.56
2022-12-26T11:33:56.534Z,10.54
2022-12-26T11:34:56.497Z,10.56
2022-12-26T11:35:56.487Z,10.60
2022-12-26T11:36:56.506Z,10.53
2022-12-26T11:37:56.469Z,10.56
2022-12-26T11:38:56.463Z,10.59
2022-12-26T11:39:56.452Z,10.56
2022-12-26T11:40:56.446Z,10.59
2022-12-26T11:41:56.447Z,10.56
2022-12-26T11:42:56.517Z,10.57
2022-12-26T11:43:56.424Z,10.59
2022-12-26T11:44:56.448Z,10.56
2022-12-26T11:45:56.402Z,10.57
2022-12-26T11:46:56.563Z,10.68
2022-12-26T11:47:56.387Z,10.74
2022-12-26T11:48:56.613Z,10.71
2022-12-26T11:49:56.371Z,10.67
2022-12-26T11:50:56.369Z,10.75
2022-12-26T11:51:59.536Z,10.81
2022-12-26T11:52:56.360Z,10.84
2022-12-26T11:53:56.351Z,10.81
2022-12-26T11:54:56.336Z,10.94
2022-12-26T11:55:56.325Z,10.94
2022-12-26T11:56:56.319Z,10.93
2022-12-26T11:57:58.585Z,10.96
2022-12-26T11:58:56.299Z,10.96
2022-12-26T11:59:56.297Z,10.99
2022-12-26T12:00:56.361Z,11.07
2022-12-26T12:01:56.356Z,11.10
2022-12-26T12:02:56.320Z,11.10
2022-12-26T12:03:56.378Z,11.05
2022-12-26T12:04:56.355Z,11.00
2022-12-26T12:05:56.248Z,11.07
2022-12-26T12:06:56.240Z,11.00
2022-12-26T12:07:56.232Z,11.04
2022-12-26T12:09:00.834Z,11.04
2022-12-26T12:09:56.217Z,11.04
2022-12-26T12:10:56.210Z,10.96
2022-12-26T12:11:56.200Z,10.93
2022-12-26T12:12:56.198Z,10.94
2022-12-26T12:13:56.189Z,10.87
2022-12-26T12:14:56.188Z,10.87
2022-12-26T12:15:56.171Z,10.86
2022-12-26T12:16:56.179Z,10.81
2022-12-26T12:17:56.176Z,10.74
2022-12-26T12:18:56.153Z,10.79
2022-12-26T12:19:56.141Z,10.71
2022-12-26T12:20:56.139Z,10.75
2022-12-26T12:21:56.151Z,10.64
2022-12-26T12:22:56.119Z,10.60
2022-12-26T12:23:56.111Z,10.63
2022-12-26T12:24:56.120Z,10.60
2022-12-26T12:25:56.150Z,10.60
2022-12-26T12:27:01.608Z,10.60
2022-12-26T12:27:56.094Z,10.60
2022-12-26T12:28:56.079Z,10.59
2022-12-26T12:29:56.068Z,10.56
2022-12-26T12:30:56.057Z,10.56
2022-12-26T12:31:56.253Z,10.48
2022-12-26T12:32:57.336Z,10.57
2022-12-26T12:33:56.067Z,10.44
2022-12-26T12:34:56.079Z,10.54
2022-12-26T12:35:56.025Z,10.56
2022-12-26T12:36:56.003Z,10.44
2022-12-26T12:37:56.004Z,10.51
2022-12-26T12:38:56.825Z,10.49
2022-12-26T12:39:55.992Z,10.56
2022-12-26T12:40:55.975Z,10.53
2022-12-26T12:41:56.103Z,10.41
2022-12-26T12:42:55.963Z,10.54
2022-12-26T12:43:55.960Z,10.60
2022-12-26T12:44:56.835Z,10.57
2022-12-26T12:45:56.218Z,10.54
2022-12-26T12:46:55.931Z,10.60
2022-12-26T12:47:55.924Z,10.53
2022-12-26T12:48:55.913Z,10.59
2022-12-26T12:49:55.909Z,10.60
2022-12-26T12:50:56.982Z,10.63
2022-12-26T12:51:56.171Z,10.56
2022-12-26T12:52:55.885Z,10.60
2022-12-26T12:53:55.874Z,10.51
2022-12-26T12:54:55.867Z,10.59
2022-12-26T12:55:55.861Z,10.59
2022-12-26T12:56:55.853Z,10.56
2022-12-26T12:57:55.848Z,10.60
2022-12-26T12:58:55.833Z,10.60
2022-12-26T12:59:55.843Z,10.61